地図

経路データ

SID SEASON NUMBER BASIN SUBBASIN NAME ISO_TIME NATURE LAT LON WMO_WIND WMO_PRES WMO_AGENCY TRACK_TYPE DIST2LAND LANDFALL IFLAG USA_AGENCY USA_ATCF_ID USA_LAT USA_LON USA_RECORD USA_STATUS USA_WIND USA_PRES USA_SSHS USA_R34_NE USA_R34_SE USA_R34_SW USA_R34_NW USA_R50_NE USA_R50_SE USA_R50_SW USA_R50_NW USA_R64_NE USA_R64_SE USA_R64_SW USA_R64_NW USA_POCI USA_ROCI USA_RMW USA_EYE TOKYO_LAT TOKYO_LON TOKYO_GRADE TOKYO_WIND TOKYO_PRES TOKYO_R50_DIR TOKYO_R50_LONG TOKYO_R50_SHORT TOKYO_R30_DIR TOKYO_R30_LONG TOKYO_R30_SHORT TOKYO_LAND CMA_LAT CMA_LON CMA_CAT CMA_WIND CMA_PRES HKO_LAT HKO_LON HKO_CAT HKO_WIND HKO_PRES NEWDELHI_LAT NEWDELHI_LON NEWDELHI_GRADE NEWDELHI_WIND NEWDELHI_PRES NEWDELHI_CI NEWDELHI_DP NEWDELHI_POCI REUNION_LAT REUNION_LON REUNION_TYPE REUNION_WIND REUNION_PRES REUNION_TNUM REUNION_CI REUNION_RMW REUNION_R34_NE REUNION_R34_SE REUNION_R34_SW REUNION_R34_NW REUNION_R50_NE REUNION_R50_SE REUNION_R50_SW REUNION_R50_NW REUNION_R64_NE REUNION_R64_SE REUNION_R64_SW REUNION_R64_NW BOM_LAT BOM_LON BOM_TYPE BOM_WIND BOM_PRES BOM_TNUM BOM_CI BOM_RMW BOM_R34_NE BOM_R34_SE BOM_R34_SW BOM_R34_NW BOM_R50_NE BOM_R50_SE BOM_R50_SW BOM_R50_NW BOM_R64_NE BOM_R64_SE BOM_R64_SW BOM_R64_NW BOM_ROCI BOM_POCI BOM_EYE BOM_POS_METHOD BOM_PRES_METHOD NADI_LAT NADI_LON NADI_CAT NADI_WIND NADI_PRES WELLINGTON_LAT WELLINGTON_LON WELLINGTON_WIND WELLINGTON_PRES DS824_LAT DS824_LON DS824_STAGE DS824_WIND DS824_PRES TD9636_LAT TD9636_LON TD9636_STAGE TD9636_WIND TD9636_PRES TD9635_LAT TD9635_LON TD9635_WIND TD9635_PRES TD9635_ROCI NEUMANN_LAT NEUMANN_LON NEUMANN_CLASS NEUMANN_WIND NEUMANN_PRES MLC_LAT MLC_LON MLC_CLASS MLC_WIND MLC_PRES USA_GUST BOM_GUST BOM_GUST_PER REUNION_GUST REUNION_GUST_PER USA_SEAHGT USA_SEARAD_NE USA_SEARAD_SE USA_SEARAD_SW USA_SEARAD_NW STORM_SPEED STORM_DIR
1968246N14164 1968 83 WP MM NOT_NAMED 1968-09-02 00:00:00 TS 14.2000 164.100 main 2372 2372 __O___________ -1 14.2000 164.100 0 1002 3 325
1968246N14164 1968 83 WP MM NOT_NAMED 1968-09-02 03:00:00 TS 14.3300 164.010 main 2375 2375 __P___________ -1 14.3300 164.010 0 1002 4 327
1968246N14164 1968 83 WP MM NOT_NAMED 1968-09-02 06:00:00 TS 14.5000 163.900 main 2387 2387 __O___________ -1 14.5000 163.900 0 1002 5 329
1968246N14164 1968 83 WP MM NOT_NAMED 1968-09-02 09:00:00 TS 14.7350 163.758 main 2399 2393 __P___________ -1 14.7350 163.758 0 1002 6 330
1968246N14164 1968 83 WP MM NOT_NAMED 1968-09-02 12:00:00 TS 15.0000 163.600 main 2416 2416 __O___________ -1 15.0000 163.600 0 1002 6 330
1968246N14164 1968 83 WP MM NOT_NAMED 1968-09-02 15:00:00 TS 15.2500 163.450 main 2423 2423 __P___________ -1 15.2500 163.450 0 1002 6 330
1968246N14164 1968 83 WP MM NOT_NAMED 1968-09-02 18:00:00 TS 15.5000 163.300 main 2446 2446 __O___________ -1 15.5000 163.300 0 1002 6 331
1968246N14164 1968 83 WP MM NOT_NAMED 1968-09-02 21:00:00 TS 15.7500 163.165 main 2459 2459 __P___________ -1 15.7500 163.165 0 1002 6 330
1968246N14164 1968 83 WP MM NOT_NAMED 1968-09-03 00:00:00 TS 16.0000 163.000 main 2476 2476 __O___________ -1 16.0000 163.000 0 1002 6 323
1968246N14164 1968 83 WP MM NOT_NAMED 1968-09-03 03:00:00 TS 16.2425 162.772 main 2484 2484 __P___________ -1 16.2425 162.772 0 1002 7 316
1968246N14164 1968 83 WP MM NOT_NAMED 1968-09-03 06:00:00 TS 16.5000 162.500 main 2496 2496 __O___________ -1 16.5000 162.500 0 1002 8 315
1968246N14164 1968 83 WP MM NOT_NAMED 1968-09-03 09:00:00 TS 16.7925 162.200 main 2510 2505 __P___________ -1 16.7925 162.200 0 1002 8 316
1968246N14164 1968 83 WP MM NOT_NAMED 1968-09-03 12:00:00 TS 17.1000 161.900 main 2524 2524 __O___________ -1 17.1000 161.900 0 1002 8 319
1968246N14164 1968 83 WP MM NOT_NAMED 1968-09-03 15:00:00 TS 17.3849 161.657 main 2544 2539 __P___________ -1 17.3849 161.657 0 1002 8 322
1968246N14164 1968 83 WP MM NOT_NAMED 1968-09-03 18:00:00 TS 17.7000 161.400 main 2558 2558 __O___________ -1 17.7000 161.400 0 1002 9 321
1968246N14164 1968 83 WP MM NOT_NAMED 1968-09-03 21:00:00 TS 18.0925 161.065 main 2584 2579 __P___________ -1 18.0925 161.065 0 1002 10 320
1968246N14164 1968 83 WP MM NOT_NAMED 1968-09-04 00:00:00 TS 18.5000 160.700 main 2605 2605 __O___________ -1 18.5000 160.700 0 1002 10 318
1968246N14164 1968 83 WP MM NOT_NAMED 1968-09-04 03:00:00 TS 18.8424 160.357 main 2623 2623 __P___________ -1 18.8424 160.357 0 1002 10 317
1968246N14164 1968 83 WP MM NOT_NAMED 1968-09-04 06:00:00 TS 19.2000 160.000 main 2624 2562 __O___________ -1 19.2000 160.000 0 1002 11 317
1968246N14164 1968 83 WP MM NOT_NAMED 1968-09-04 09:00:00 TS 19.6051 159.592 main 2562 2493 __P___________ -1 19.6051 159.592 0 1002 12 320
1968246N14164 1968 83 WP MM NOT_NAMED 1968-09-04 12:00:00 TS 20.1000 159.200 main 2493 2422 __O___________ -1 20.1000 159.200 0 1002 13 329
1968246N14164 1968 83 WP MM NOT_NAMED 1968-09-04 15:00:00 TS 20.7124 158.870 main 2422 2344 __P___________ -1 20.7124 158.870 0 1002 14 337
1968246N14164 1968 83 WP MM NOT_NAMED 1968-09-04 18:00:00 TS 21.4000 158.600 main 2344 2281 __O___________ -1 21.4000 158.600 0 1002 15 342
1968246N14164 1968 83 WP MM NOT_NAMED 1968-09-04 21:00:00 TS 22.0849 158.377 main 2273 2203 __P___________ -1 22.0849 158.377 0 1002 15 345
1968246N14164 1968 83 WP MM NOT_NAMED 1968-09-05 00:00:00 TS 22.8000 158.200 main 2203 2134 __O___________ -1 22.8000 158.200 0 1002 15 348
1968246N14164 1968 83 WP MM NOT_NAMED 1968-09-05 03:00:00 TS 23.5650 158.035 main 2126 2065 __P___________ -1 23.5650 158.035 0 1001 15 350
1968246N14164 1968 83 WP MM NOT_NAMED 1968-09-05 06:00:00 TS 24.3000 157.900 main 2065 2014 __O___________ -1 24.3000 157.900 1 29 1000 14 352
1968246N14164 1968 83 WP MM NOT_NAMED 1968-09-05 09:00:00 TS 24.9074 157.822 main 2014 1963 __P___________ -1 24.9074 157.822 1 29 1000 12 351
1968246N14164 1968 83 WP MM NOT_NAMED 1968-09-05 12:00:00 TS 25.5000 157.700 main 1963 1890 __O___________ -1 25.5000 157.700 1 29 1000 14 344
1968246N14164 1968 83 WP MM NOT_NAMED 1968-09-05 15:00:00 TS 26.2002 157.416 main 1890 1819 __P___________ -1 26.2002 157.416 1 29 1000 15 339
1968246N14164 1968 83 WP MM NOT_NAMED 1968-09-05 18:00:00 TS 26.9000 157.100 main 1819 1764 __O___________ -1 26.9000 157.100 1 29 1000 14 341
1968246N14164 1968 83 WP MM NOT_NAMED 1968-09-05 21:00:00 TS 27.5073 156.899 main 1764 1710 __P___________ -1 27.5073 156.899 1 29 998 13 344
1968246N14164 1968 83 WP MM NOT_NAMED 1968-09-06 00:00:00 ET 28.1000 156.700 main 1710 1649 __O___________ -1 28.1000 156.700 9 29 996 13 341
1968246N14164 1968 83 WP MM NOT_NAMED 1968-09-06 03:00:00 ET 28.7576 156.408 main 1643 1583 __P___________ -1 28.7576 156.408 9 29 996 14 338
1968246N14164 1968 83 WP MM NOT_NAMED 1968-09-06 06:00:00 ET 29.4000 156.100 main 1583 1530 __O___________ -1 29.4000 156.100 9 29 996 13 337
1968246N14164 1968 83 WP MM NOT_NAMED 1968-09-06 09:00:00 ET 29.9650 155.827 main 1525 1482 __P___________ -1 29.9650 155.827 9 29 995 12 338
1968246N14164 1968 83 WP MM NOT_NAMED 1968-09-06 12:00:00 ET 30.5000 155.600 main 1482 1440 __O___________ -1 30.5000 155.600 9 29 994 11 342
1968246N14164 1968 83 WP MM NOT_NAMED 1968-09-06 15:00:00 ET 31.0274 155.434 main 1440 1404 __P___________ -1 31.0274 155.434 9 29 993 11 347
1968246N14164 1968 83 WP MM NOT_NAMED 1968-09-06 18:00:00 ET 31.6000 155.300 main 1404 1358 __O___________ -1 31.6000 155.300 9 29 992 13 348
1968246N14164 1968 83 WP MM NOT_NAMED 1968-09-06 21:00:00 ET 32.3075 155.128 main 1358 1324 __P___________ -1 32.3075 155.128 9 29 991 14 350
1968246N14164 1968 83 WP MM NOT_NAMED 1968-09-07 00:00:00 ET 33.0000 155.000 main 1324 1309 __O___________ -1 33.0000 155.000 9 29 990 12 354
1968246N14164 1968 83 WP MM NOT_NAMED 1968-09-07 03:00:00 ET 33.5374 154.977 main 1309 1296 __P___________ -1 33.5374 154.977 9 29 990 10 1
1968246N14164 1968 83 WP MM NOT_NAMED 1968-09-07 06:00:00 ET 34.0000 155.000 main 1296 1275 __O___________ -1 34.0000 155.000 9 29 990 9 1
1968246N14164 1968 83 WP MM NOT_NAMED 1968-09-07 09:00:00 ET 34.4575 154.978 main 1267 1232 __P___________ -1 34.4575 154.978 9 29 990 9 0
1968246N14164 1968 83 WP MM NOT_NAMED 1968-09-07 12:00:00 ET 34.9000 155.000 main 1232 1203 __O___________ -1 34.9000 155.000 9 29 990 9 7
1968246N14164 1968 83 WP MM NOT_NAMED 1968-09-07 15:00:00 ET 35.3649 155.105 main 1195 1173 __P___________ -1 35.3649 155.105 9 29 990 9 15
1968246N14164 1968 83 WP MM NOT_NAMED 1968-09-07 18:00:00 ET 35.8000 155.300 main 1173 1161 __O___________ -1 35.8000 155.300 9 29 990 9 26
1968246N14164 1968 83 WP MM NOT_NAMED 1968-09-07 21:00:00 ET 36.1350 155.571 main 1166 1136 __P___________ -1 36.1350 155.571 9 29 990 9 35
1968246N14164 1968 83 WP MM NOT_NAMED 1968-09-08 00:00:00 ET 36.5000 155.900 main 1136 1098 __O___________ -1 36.5000 155.900 9 29 990 10 31
1968246N14164 1968 83 WP MM NOT_NAMED 1968-09-08 03:00:00 ET 37.0200 156.242 main 1098 1056 __P___________ -1 37.0200 156.242 9 29 990 12 27
1968246N14164 1968 83 WP MM NOT_NAMED 1968-09-08 06:00:00 ET 37.6000 156.600 main 1056 1023 __O___________ -1 37.6000 156.600 9 29 990 13 28
1968246N14164 1968 83 WP MM NOT_NAMED 1968-09-08 09:00:00 ET 38.1427 156.995 main 1028 988 __P___________ -1 38.1427 156.995 9 29 990 12 27
1968246N14164 1968 83 WP MM NOT_NAMED 1968-09-08 12:00:00 ET 38.7000 157.300 main 988 941 __O___________ -1 38.7000 157.300 9 29 990 12 16
1968246N14164 1968 83 WP MM NOT_NAMED 1968-09-08 15:00:00 ET 39.2998 157.433 main 941 888 __P___________ -1 39.2998 157.433 9 990 12 4
1968246N14164 1968 83 WP MM NOT_NAMED 1968-09-08 18:00:00 ET 39.9000 157.400 main 888 840 __O___________ -1 39.9000 157.400 9 990 12 355
1968246N14164 1968 83 WP MM NOT_NAMED 1968-09-08 21:00:00 ET 40.4719 157.304 main 831 773 __P___________ -1 40.4719 157.304 9 990 11 345
1968246N14164 1968 83 WP MM NOT_NAMED 1968-09-09 00:00:00 ET 41.0000 157.000 main 773 704 __O___________ -1 41.0000 157.000 9 990 12 328
1968246N14164 1968 83 WP MM NOT_NAMED 1968-09-09 03:00:00 ET 41.4948 156.456 main 704 626 __P___________ -1 41.4948 156.456 9 989 13 313
1968246N14164 1968 83 WP MM NOT_NAMED 1968-09-09 06:00:00 ET 41.9000 155.700 main 626 567 __O___________ -1 41.9000 155.700 9 988 14 298
1968246N14164 1968 83 WP MM NOT_NAMED 1968-09-09 09:00:00 ET 42.1503 154.828 main 553 493 __P___________ -1 42.1503 154.828 9 987 14 291
1968246N14164 1968 83 WP MM NOT_NAMED 1968-09-09 12:00:00 ET 42.4000 153.900 main 488 406 __O___________ -1 42.4000 153.900 9 986 15 295
1968246N14164 1968 83 WP MM NOT_NAMED 1968-09-09 15:00:00 ET 42.8058 152.940 main 401 323 __P___________ -1 42.8058 152.940 9 985 15 306
1968246N14164 1968 83 WP MM NOT_NAMED 1968-09-09 18:00:00 ET 43.3000 152.200 main 323 264 __O___________ -1 43.3000 152.200 9 984 13 325
1968246N14164 1968 83 WP MM NOT_NAMED 1968-09-09 21:00:00 ET 43.8714 151.898 main 256 215 __P___________ -1 43.8714 151.898 9 982 11 349
1968246N14164 1968 83 WP MM NOT_NAMED 1968-09-10 00:00:00 ET 44.4000 151.900 main 215 195 __O___________ -1 44.4000 151.900 9 980 9 5
1968246N14164 1968 83 WP MM NOT_NAMED 1968-09-10 03:00:00 ET 44.7375 152.004 main 195 184 __P___________ -1 44.7375 152.004 9 981 6 20
1968246N14164 1968 83 WP MM NOT_NAMED 1968-09-10 06:00:00 ET 45.0000 152.200 main 184 171 __O___________ -1 45.0000 152.200 9 982 6 24
1968246N14164 1968 83 WP MM NOT_NAMED 1968-09-10 09:00:00 ET 45.2850 152.358 main 178 168 __P___________ -1 45.2850 152.358 9 982 6 19
1968246N14164 1968 83 WP MM NOT_NAMED 1968-09-10 12:00:00 ET 45.6000 152.500 main 171 165 __O___________ -1 45.6000 152.500 9 982 7 13
1968246N14164 1968 83 WP MM NOT_NAMED 1968-09-10 15:00:00 ET 45.9999 152.600 main 169 168 __P___________ -1 45.9999 152.600 9 981 8 10
1968246N14164 1968 83 WP MM NOT_NAMED 1968-09-10 18:00:00 ET 46.4000 152.700 main 179 179 __O___________ -1 46.4000 152.700 9 980 7 10
1968246N14164 1968 83 WP MM NOT_NAMED 1968-09-10 21:00:00 ET 46.7145 152.784 main 195 195 __P___________ -1 46.7145 152.784 9 980 6 19
1968246N14164 1968 83 WP MM NOT_NAMED 1968-09-11 00:00:00 ET 47.0000 153.000 main 221 221 __O___________ -1 47.0000 153.000 9 980 8 36
1968246N14164 1968 83 WP MM NOT_NAMED 1968-09-11 03:00:00 ET 47.3219 153.437 main 263 263 __P___________ -1 47.3219 153.437 9 980 10 51
1968246N14164 1968 83 WP MM NOT_NAMED 1968-09-11 06:00:00 ET 47.6000 154.100 main 282 246 __O___________ -1 47.6000 154.100 9 980 11 66
1968246N14164 1968 83 WP MM NOT_NAMED 1968-09-11 09:00:00 ET 47.7819 154.950 main 246 233 __P___________ -1 47.7819 154.950 9 981 12 76
1968246N14164 1968 83 WP MM NOT_NAMED 1968-09-11 12:00:00 ET 47.9000 155.900 main 235 __O___________ -1 47.9000 155.900 9 982 13 79

デジタル台風データ・検索

IBTrACS Databaseについて

本データベースは、米国NOAAが公開する1842年以降の世界の熱帯低気圧のベストトラックデータアーカイブInternational Best Track Archive for Climate Stewardship (IBTrACS)を、ウェブで閲覧しやすい形式に変換したものです。

最終更新日:2021-10-21